sensor_id;sensor_type;location;lat;lon;timestamp;temperature;humidity
12470;DHT22;36499;46.484;13.832;2023-09-19T00:00:25;16.60;99.90
12470;DHT22;36499;46.484;13.832;2023-09-19T00:02:53;16.60;99.90
12470;DHT22;36499;46.484;13.832;2023-09-19T00:05:22;16.60;99.90
12470;DHT22;36499;46.484;13.832;2023-09-19T00:07:53;16.60;99.90
12470;DHT22;36499;46.484;13.832;2023-09-19T00:10:24;16.70;99.90
12470;DHT22;36499;46.484;13.832;2023-09-19T00:12:52;16.60;99.90
12470;DHT22;36499;46.484;13.832;2023-09-19T00:15:23;16.60;99.90
12470;DHT22;36499;46.484;13.832;2023-09-19T00:17:51;16.60;99.90
12470;DHT22;36499;46.484;13.832;2023-09-19T00:20:18;16.60;99.90
12470;DHT22;36499;46.484;13.832;2023-09-19T00:22:48;16.60;99.90
12470;DHT22;36499;46.484;13.832;2023-09-19T00:25:17;16.60;99.90
12470;DHT22;36499;46.484;13.832;2023-09-19T00:27:46;16.60;99.90
12470;DHT22;36499;46.484;13.832;2023-09-19T00:30:16;16.60;99.90
12470;DHT22;36499;46.484;13.832;2023-09-19T00:32:48;16.60;99.90
12470;DHT22;36499;46.484;13.832;2023-09-19T00:35:20;16.60;99.90
12470;DHT22;36499;46.484;13.832;2023-09-19T00:37:49;16.50;99.90
12470;DHT22;36499;46.484;13.832;2023-09-19T00:40:16;16.50;99.90
12470;DHT22;36499;46.484;13.832;2023-09-19T00:42:44;16.50;99.90
12470;DHT22;36499;46.484;13.832;2023-09-19T00:45:15;16.40;99.90
12470;DHT22;36499;46.484;13.832;2023-09-19T00:47:44;16.50;99.90
12470;DHT22;36499;46.484;13.832;2023-09-19T00:50:16;16.50;99.90
12470;DHT22;36499;46.484;13.832;2023-09-19T00:52:45;16.50;99.90
12470;DHT22;36499;46.484;13.832;2023-09-19T00:55:16;16.50;99.90
12470;DHT22;36499;46.484;13.832;2023-09-19T00:57:45;16.50;99.90
12470;DHT22;36499;46.484;13.832;2023-09-19T01:00:15;16.50;99.90
12470;DHT22;36499;46.484;13.832;2023-09-19T01:02:47;16.50;99.90
12470;DHT22;36499;46.484;13.832;2023-09-19T01:05:15;16.40;99.90
12470;DHT22;36499;46.484;13.832;2023-09-19T01:07:42;16.30;99.90
12470;DHT22;36499;46.484;13.832;2023-09-19T01:10:12;16.30;99.90
12470;DHT22;36499;46.484;13.832;2023-09-19T01:12:49;16.30;99.90
12470;DHT22;36499;46.484;13.832;2023-09-19T01:15:40;16.30;99.90
12470;DHT22;36499;46.484;13.832;2023-09-19T01:18:26;16.20;99.90
12470;DHT22;36499;46.484;13.832;2023-09-19T01:21:13;16.20;99.90
12470;DHT22;36499;46.484;13.832;2023-09-19T01:24:16;16.10;99.90
12470;DHT22;36499;46.484;13.832;2023-09-19T01:27:15;16.00;99.90
12470;DHT22;36499;46.484;13.832;2023-09-19T01:30:14;15.80;99.90
12470;DHT22;36499;46.484;13.832;2023-09-19T01:32:44;15.70;99.90
12470;DHT22;36499;46.484;13.832;2023-09-19T01:35:11;15.60;99.90
12470;DHT22;36499;46.484;13.832;2023-09-19T01:37:39;15.40;99.90
12470;DHT22;36499;46.484;13.832;2023-09-19T01:40:11;15.40;99.90
12470;DHT22;36499;46.484;13.832;2023-09-19T01:42:45;15.30;99.90
12470;DHT22;36499;46.484;13.832;2023-09-19T01:45:27;15.20;99.90
12470;DHT22;36499;46.484;13.832;2023-09-19T01:48:09;15.10;99.90
12470;DHT22;36499;46.484;13.832;2023-09-19T01:50:52;15.00;99.90
12470;DHT22;36499;46.484;13.832;2023-09-19T01:53:27;15.00;99.90
12470;DHT22;36499;46.484;13.832;2023-09-19T01:56:01;15.00;99.90
12470;DHT22;36499;46.484;13.832;2023-09-19T01:58:35;14.90;99.90
12470;DHT22;36499;46.484;13.832;2023-09-19T02:01:12;14.90;99.90
12470;DHT22;36499;46.484;13.832;2023-09-19T02:03:46;15.00;99.90
12470;DHT22;36499;46.484;13.832;2023-09-19T02:06:15;14.90;99.90
12470;DHT22;36499;46.484;13.832;2023-09-19T02:08:43;15.00;99.90
12470;DHT22;36499;46.484;13.832;2023-09-19T02:11:10;15.00;99.90
12470;DHT22;36499;46.484;13.832;2023-09-19T02:13:38;15.00;99.90
12470;DHT22;36499;46.484;13.832;2023-09-19T02:16:06;15.00;99.90
12470;DHT22;36499;46.484;13.832;2023-09-19T02:18:36;14.90;99.90
12470;DHT22;36499;46.484;13.832;2023-09-19T02:21:03;14.90;99.90
12470;DHT22;36499;46.484;13.832;2023-09-19T02:23:32;14.90;99.90
12470;DHT22;36499;46.484;13.832;2023-09-19T02:25:59;14.80;99.90
12470;DHT22;36499;46.484;13.832;2023-09-19T02:28:27;14.90;99.90
12470;DHT22;36499;46.484;13.832;2023-09-19T02:30:55;14.80;99.90
12470;DHT22;36499;46.484;13.832;2023-09-19T02:33:22;14.80;99.90
12470;DHT22;36499;46.484;13.832;2023-09-19T02:35:54;14.90;99.90
12470;DHT22;36499;46.484;13.832;2023-09-19T02:38:23;14.90;99.90
12470;DHT22;36499;46.484;13.832;2023-09-19T02:40:51;14.80;99.90
12470;DHT22;36499;46.484;13.832;2023-09-19T02:43:20;14.80;99.90
12470;DHT22;36499;46.484;13.832;2023-09-19T02:45:48;14.80;99.90
12470;DHT22;36499;46.484;13.832;2023-09-19T02:48:17;14.80;99.90
12470;DHT22;36499;46.484;13.832;2023-09-19T02:50:45;14.80;99.90
12470;DHT22;36499;46.484;13.832;2023-09-19T02:53:13;14.80;99.90
12470;DHT22;36499;46.484;13.832;2023-09-19T02:55:41;14.80;99.90
12470;DHT22;36499;46.484;13.832;2023-09-19T02:58:08;14.80;99.90
12470;DHT22;36499;46.484;13.832;2023-09-19T03:00:37;14.90;99.90
12470;DHT22;36499;46.484;13.832;2023-09-19T03:03:04;14.90;99.90
12470;DHT22;36499;46.484;13.832;2023-09-19T03:05:34;14.90;99.90
12470;DHT22;36499;46.484;13.832;2023-09-19T03:08:04;14.90;99.90
12470;DHT22;36499;46.484;13.832;2023-09-19T03:10:33;14.90;99.90
12470;DHT22;36499;46.484;13.832;2023-09-19T03:13:03;14.90;99.90
12470;DHT22;36499;46.484;13.832;2023-09-19T03:15:31;14.80;99.90
12470;DHT22;36499;46.484;13.832;2023-09-19T03:17:58;14.80;99.90
12470;DHT22;36499;46.484;13.832;2023-09-19T03:20:25;14.80;99.90
12470;DHT22;36499;46.484;13.832;2023-09-19T03:22:53;14.70;99.90
12470;DHT22;36499;46.484;13.832;2023-09-19T03:25:20;14.80;99.90
12470;DHT22;36499;46.484;13.832;2023-09-19T03:27:50;14.70;99.90
12470;DHT22;36499;46.484;13.832;2023-09-19T03:30:17;14.60;99.90
12470;DHT22;36499;46.484;13.832;2023-09-19T03:32:45;14.60;99.90
12470;DHT22;36499;46.484;13.832;2023-09-19T03:35:15;14.60;99.90
12470;DHT22;36499;46.484;13.832;2023-09-19T03:37:43;14.50;99.90
12470;DHT22;36499;46.484;13.832;2023-09-19T03:40:10;14.50;99.90
12470;DHT22;36499;46.484;13.832;2023-09-19T03:42:39;14.50;99.90
12470;DHT22;36499;46.484;13.832;2023-09-19T03:45:08;14.50;99.90
12470;DHT22;36499;46.484;13.832;2023-09-19T03:47:38;14.50;99.90
12470;DHT22;36499;46.484;13.832;2023-09-19T03:50:06;14.50;99.90
12470;DHT22;36499;46.484;13.832;2023-09-19T03:52:36;14.50;99.90
12470;DHT22;36499;46.484;13.832;2023-09-19T03:55:04;14.40;99.90
12470;DHT22;36499;46.484;13.832;2023-09-19T03:57:31;14.40;99.90
12470;DHT22;36499;46.484;13.832;2023-09-19T04:00:00;14.40;99.90
12470;DHT22;36499;46.484;13.832;2023-09-19T04:02:29;14.40;99.90
12470;DHT22;36499;46.484;13.832;2023-09-19T04:04:58;14.40;99.90
12470;DHT22;36499;46.484;13.832;2023-09-19T04:07:25;14.30;99.90
12470;DHT22;36499;46.484;13.832;2023-09-19T04:09:54;14.30;99.90
12470;DHT22;36499;46.484;13.832;2023-09-19T04:12:21;14.20;99.90
12470;DHT22;36499;46.484;13.832;2023-09-19T04:14:48;14.20;99.90
12470;DHT22;36499;46.484;13.832;2023-09-19T04:17:16;14.10;99.90
12470;DHT22;36499;46.484;13.832;2023-09-19T04:19:45;14.10;99.90
12470;DHT22;36499;46.484;13.832;2023-09-19T04:22:12;14.10;99.90
12470;DHT22;36499;46.484;13.832;2023-09-19T04:24:39;14.10;99.90
12470;DHT22;36499;46.484;13.832;2023-09-19T04:27:06;14.10;99.90
12470;DHT22;36499;46.484;13.832;2023-09-19T04:29:35;14.00;99.90
12470;DHT22;36499;46.484;13.832;2023-09-19T04:32:03;14.00;99.90
12470;DHT22;36499;46.484;13.832;2023-09-19T04:34:31;14.00;99.90
12470;DHT22;36499;46.484;13.832;2023-09-19T04:37:01;13.90;99.90
12470;DHT22;36499;46.484;13.832;2023-09-19T04:39:29;13.90;99.90
12470;DHT22;36499;46.484;13.832;2023-09-19T04:41:56;13.80;99.90
12470;DHT22;36499;46.484;13.832;2023-09-19T04:44:24;13.70;99.90
12470;DHT22;36499;46.484;13.832;2023-09-19T04:46:51;13.70;99.90
12470;DHT22;36499;46.484;13.832;2023-09-19T04:49:18;13.60;99.90
12470;DHT22;36499;46.484;13.832;2023-09-19T04:51:45;13.60;99.90
12470;DHT22;36499;46.484;13.832;2023-09-19T04:54:14;13.50;99.90
12470;DHT22;36499;46.484;13.832;2023-09-19T04:56:41;13.50;99.90
12470;DHT22;36499;46.484;13.832;2023-09-19T04:59:08;13.50;99.90
12470;DHT22;36499;46.484;13.832;2023-09-19T05:01:36;13.50;99.90
12470;DHT22;36499;46.484;13.832;2023-09-19T05:04:03;13.50;99.90
12470;DHT22;36499;46.484;13.832;2023-09-19T05:06:31;13.50;99.90
12470;DHT22;36499;46.484;13.832;2023-09-19T05:09:00;13.40;99.90
12470;DHT22;36499;46.484;13.832;2023-09-19T05:11:32;13.40;99.90
12470;DHT22;36499;46.484;13.832;2023-09-19T05:13:59;13.40;99.90
12470;DHT22;36499;46.484;13.832;2023-09-19T05:16:29;13.40;99.90
12470;DHT22;36499;46.484;13.832;2023-09-19T05:18:57;13.40;99.90
12470;DHT22;36499;46.484;13.832;2023-09-19T05:21:25;13.40;99.90
12470;DHT22;36499;46.484;13.832;2023-09-19T05:23:54;13.40;99.90
12470;DHT22;36499;46.484;13.832;2023-09-19T05:26:21;13.40;99.90
12470;DHT22;36499;46.484;13.832;2023-09-19T05:28:50;13.30;99.90
12470;DHT22;36499;46.484;13.832;2023-09-19T05:31:18;13.30;99.90
12470;DHT22;36499;46.484;13.832;2023-09-19T05:33:46;13.30;99.90
12470;DHT22;36499;46.484;13.832;2023-09-19T05:36:13;13.40;99.90
12470;DHT22;36499;46.484;13.832;2023-09-19T05:38:42;13.30;99.90
12470;DHT22;36499;46.484;13.832;2023-09-19T05:41:10;13.30;99.90
12470;DHT22;36499;46.484;13.832;2023-09-19T05:43:39;13.30;99.90
12470;DHT22;36499;46.484;13.832;2023-09-19T05:46:07;13.30;99.90
12470;DHT22;36499;46.484;13.832;2023-09-19T05:48:34;13.30;99.90
12470;DHT22;36499;46.484;13.832;2023-09-19T05:51:02;13.20;99.90
12470;DHT22;36499;46.484;13.832;2023-09-19T05:53:29;13.20;99.90
12470;DHT22;36499;46.484;13.832;2023-09-19T05:55:56;13.40;99.90
12470;DHT22;36499;46.484;13.832;2023-09-19T05:58:26;13.50;99.90
12470;DHT22;36499;46.484;13.832;2023-09-19T06:00:53;13.50;99.90
12470;DHT22;36499;46.484;13.832;2023-09-19T06:03:22;13.70;99.90
12470;DHT22;36499;46.484;13.832;2023-09-19T06:05:49;13.70;99.90
12470;DHT22;36499;46.484;13.832;2023-09-19T06:08:18;13.80;99.90
12470;DHT22;36499;46.484;13.832;2023-09-19T06:10:46;14.00;99.90
12470;DHT22;36499;46.484;13.832;2023-09-19T06:13:14;14.10;99.90
12470;DHT22;36499;46.484;13.832;2023-09-19T06:15:41;14.10;99.90
12470;DHT22;36499;46.484;13.832;2023-09-19T06:18:11;14.10;99.90
12470;DHT22;36499;46.484;13.832;2023-09-19T06:20:42;14.10;99.90
12470;DHT22;36499;46.484;13.832;2023-09-19T06:23:10;14.20;99.90
12470;DHT22;36499;46.484;13.832;2023-09-19T06:25:37;14.30;99.90
12470;DHT22;36499;46.484;13.832;2023-09-19T06:28:05;14.40;99.90
12470;DHT22;36499;46.484;13.832;2023-09-19T06:30:34;14.40;99.90
12470;DHT22;36499;46.484;13.832;2023-09-19T06:33:01;14.50;99.90
12470;DHT22;36499;46.484;13.832;2023-09-19T06:35:33;14.50;99.90
12470;DHT22;36499;46.484;13.832;2023-09-19T06:38:04;14.50;99.90
12470;DHT22;36499;46.484;13.832;2023-09-19T06:40:31;14.50;99.90
12470;DHT22;36499;46.484;13.832;2023-09-19T06:43:00;14.50;99.90
12470;DHT22;36499;46.484;13.832;2023-09-19T06:45:29;14.50;99.90
12470;DHT22;36499;46.484;13.832;2023-09-19T06:47:57;14.50;99.90
12470;DHT22;36499;46.484;13.832;2023-09-19T06:50:25;14.50;99.90
12470;DHT22;36499;46.484;13.832;2023-09-19T06:52:54;14.50;99.90
12470;DHT22;36499;46.484;13.832;2023-09-19T06:55:24;14.60;99.90
12470;DHT22;36499;46.484;13.832;2023-09-19T06:57:53;14.60;99.90
12470;DHT22;36499;46.484;13.832;2023-09-19T07:00:21;14.60;99.90
12470;DHT22;36499;46.484;13.832;2023-09-19T07:02:55;14.70;99.90
12470;DHT22;36499;46.484;13.832;2023-09-19T07:05:24;14.80;99.90
12470;DHT22;36499;46.484;13.832;2023-09-19T07:07:53;14.90;99.90
12470;DHT22;36499;46.484;13.832;2023-09-19T07:10:21;15.00;99.90
12470;DHT22;36499;46.484;13.832;2023-09-19T07:12:55;15.10;99.90
12470;DHT22;36499;46.484;13.832;2023-09-19T07:15:23;15.10;99.90
12470;DHT22;36499;46.484;13.832;2023-09-19T07:17:51;15.20;99.90
12470;DHT22;36499;46.484;13.832;2023-09-19T07:20:19;15.20;99.90
12470;DHT22;36499;46.484;13.832;2023-09-19T07:22:46;15.20;99.90
12470;DHT22;36499;46.484;13.832;2023-09-19T07:25:14;15.20;99.90
12470;DHT22;36499;46.484;13.832;2023-09-19T07:27:42;15.20;99.90
12470;DHT22;36499;46.484;13.832;2023-09-19T07:30:12;15.10;99.90
12470;DHT22;36499;46.484;13.832;2023-09-19T07:32:40;15.10;99.90
12470;DHT22;36499;46.484;13.832;2023-09-19T07:35:08;15.20;99.90
12470;DHT22;36499;46.484;13.832;2023-09-19T07:37:35;15.30;99.90
12470;DHT22;36499;46.484;13.832;2023-09-19T07:40:02;15.40;99.90
12470;DHT22;36499;46.484;13.832;2023-09-19T07:42:32;15.50;99.90
12470;DHT22;36499;46.484;13.832;2023-09-19T07:45:00;15.60;99.90
12470;DHT22;36499;46.484;13.832;2023-09-19T07:47:29;15.60;99.90
12470;DHT22;36499;46.484;13.832;2023-09-19T07:49:58;15.60;99.90
12470;DHT22;36499;46.484;13.832;2023-09-19T07:52:27;15.50;99.90
12470;DHT22;36499;46.484;13.832;2023-09-19T07:54:54;15.50;99.90
12470;DHT22;36499;46.484;13.832;2023-09-19T07:57:22;15.60;99.90
12470;DHT22;36499;46.484;13.832;2023-09-19T07:59:50;15.60;99.90
12470;DHT22;36499;46.484;13.832;2023-09-19T08:02:17;15.70;99.90
12470;DHT22;36499;46.484;13.832;2023-09-19T08:04:45;15.90;99.90
12470;DHT22;36499;46.484;13.832;2023-09-19T08:07:12;16.30;99.90
12470;DHT22;36499;46.484;13.832;2023-09-19T08:09:40;16.50;99.90
12470;DHT22;36499;46.484;13.832;2023-09-19T08:12:07;16.60;99.90
12470;DHT22;36499;46.484;13.832;2023-09-19T08:14:36;16.70;99.90
12470;DHT22;36499;46.484;13.832;2023-09-19T08:17:03;17.00;99.90
12470;DHT22;36499;46.484;13.832;2023-09-19T08:19:31;17.40;99.90
12470;DHT22;36499;46.484;13.832;2023-09-19T08:22:00;17.70;99.90
12470;DHT22;36499;46.484;13.832;2023-09-19T08:24:29;18.00;99.90
12470;DHT22;36499;46.484;13.832;2023-09-19T08:26:57;18.30;99.90
12470;DHT22;36499;46.484;13.832;2023-09-19T08:29:25;18.40;99.90
12470;DHT22;36499;46.484;13.832;2023-09-19T08:31:53;18.50;99.90
12470;DHT22;36499;46.484;13.832;2023-09-19T08:34:21;18.50;99.90
12470;DHT22;36499;46.484;13.832;2023-09-19T08:36:50;18.50;99.90
12470;DHT22;36499;46.484;13.832;2023-09-19T08:39:19;18.80;99.90
12470;DHT22;36499;46.484;13.832;2023-09-19T08:41:46;19.10;99.90
12470;DHT22;36499;46.484;13.832;2023-09-19T08:44:13;19.20;99.90
12470;DHT22;36499;46.484;13.832;2023-09-19T08:46:41;19.30;99.90
12470;DHT22;36499;46.484;13.832;2023-09-19T08:49:17;19.40;99.90
12470;DHT22;36499;46.484;13.832;2023-09-19T08:51:59;19.60;99.90
12470;DHT22;36499;46.484;13.832;2023-09-19T08:54:35;19.80;99.90
12470;DHT22;36499;46.484;13.832;2023-09-19T08:57:07;20.00;99.90
12470;DHT22;36499;46.484;13.832;2023-09-19T08:59:37;20.30;99.90
12470;DHT22;36499;46.484;13.832;2023-09-19T09:02:11;20.40;99.90
12470;DHT22;36499;46.484;13.832;2023-09-19T09:04:39;20.40;99.90
12470;DHT22;36499;46.484;13.832;2023-09-19T09:07:10;20.60;99.90
12470;DHT22;36499;46.484;13.832;2023-09-19T09:09:40;20.80;99.90
12470;DHT22;36499;46.484;13.832;2023-09-19T09:12:09;21.00;99.90
12470;DHT22;36499;46.484;13.832;2023-09-19T09:14:39;21.20;99.90
12470;DHT22;36499;46.484;13.832;2023-09-19T09:17:06;21.30;99.90
12470;DHT22;36499;46.484;13.832;2023-09-19T09:19:34;21.40;99.90
12470;DHT22;36499;46.484;13.832;2023-09-19T09:22:07;21.50;99.90
12470;DHT22;36499;46.484;13.832;2023-09-19T09:24:35;21.50;99.90
12470;DHT22;36499;46.484;13.832;2023-09-19T09:27:06;21.60;99.90
12470;DHT22;36499;46.484;13.832;2023-09-19T09:29:43;21.70;99.90
12470;DHT22;36499;46.484;13.832;2023-09-19T09:32:19;21.70;99.90
12470;DHT22;36499;46.484;13.832;2023-09-19T09:34:49;21.80;99.90
12470;DHT22;36499;46.484;13.832;2023-09-19T09:37:18;21.90;99.90
12470;DHT22;36499;46.484;13.832;2023-09-19T09:39:50;22.00;99.90
12470;DHT22;36499;46.484;13.832;2023-09-19T09:42:35;22.10;99.90
12470;DHT22;36499;46.484;13.832;2023-09-19T09:45:22;22.00;99.90
12470;DHT22;36499;46.484;13.832;2023-09-19T09:48:03;22.00;99.90
12470;DHT22;36499;46.484;13.832;2023-09-19T09:50:46;22.00;99.90
12470;DHT22;36499;46.484;13.832;2023-09-19T09:53:22;22.00;99.90
12470;DHT22;36499;46.484;13.832;2023-09-19T09:56:00;22.10;99.90
12470;DHT22;36499;46.484;13.832;2023-09-19T09:58:33;22.20;99.90
12470;DHT22;36499;46.484;13.832;2023-09-19T10:01:01;22.30;99.90
12470;DHT22;36499;46.484;13.832;2023-09-19T10:03:35;22.30;99.90
12470;DHT22;36499;46.484;13.832;2023-09-19T10:06:07;22.20;99.90
12470;DHT22;36499;46.484;13.832;2023-09-19T10:09:01;22.10;99.90
12470;DHT22;36499;46.484;13.832;2023-09-19T10:11:31;22.10;99.90
12470;DHT22;36499;46.484;13.832;2023-09-19T10:14:00;22.00;99.90
12470;DHT22;36499;46.484;13.832;2023-09-19T10:16:32;22.00;99.90
12470;DHT22;36499;46.484;13.832;2023-09-19T10:19:03;21.90;99.90
12470;DHT22;36499;46.484;13.832;2023-09-19T10:21:34;21.90;99.90
12470;DHT22;36499;46.484;13.832;2023-09-19T10:24:04;21.80;99.90
12470;DHT22;36499;46.484;13.832;2023-09-19T10:26:35;21.70;99.90
12470;DHT22;36499;46.484;13.832;2023-09-19T10:29:07;21.80;99.90
12470;DHT22;36499;46.484;13.832;2023-09-19T10:31:36;21.80;99.90
12470;DHT22;36499;46.484;13.832;2023-09-19T10:34:14;21.70;99.90
12470;DHT22;36499;46.484;13.832;2023-09-19T10:36:45;21.60;99.90
12470;DHT22;36499;46.484;13.832;2023-09-19T10:39:14;21.60;99.90
12470;DHT22;36499;46.484;13.832;2023-09-19T10:41:50;21.60;99.90
12470;DHT22;36499;46.484;13.832;2023-09-19T10:44:24;21.70;99.90
12470;DHT22;36499;46.484;13.832;2023-09-19T10:46:52;21.60;99.90
12470;DHT22;36499;46.484;13.832;2023-09-19T10:49:20;21.70;99.90
12470;DHT22;36499;46.484;13.832;2023-09-19T10:51:49;21.70;99.90
12470;DHT22;36499;46.484;13.832;2023-09-19T10:54:23;21.60;99.90
12470;DHT22;36499;46.484;13.832;2023-09-19T10:56:54;21.60;99.90
12470;DHT22;36499;46.484;13.832;2023-09-19T10:59:26;21.70;99.90
12470;DHT22;36499;46.484;13.832;2023-09-19T11:02:00;21.90;99.90
12470;DHT22;36499;46.484;13.832;2023-09-19T11:04:44;22.10;99.90
12470;DHT22;36499;46.484;13.832;2023-09-19T11:07:14;22.10;99.90
12470;DHT22;36499;46.484;13.832;2023-09-19T11:09:49;22.00;99.90
12470;DHT22;36499;46.484;13.832;2023-09-19T11:12:51;22.00;99.90
12470;DHT22;36499;46.484;13.832;2023-09-19T11:18:56;22.00;99.90
12470;DHT22;36499;46.484;13.832;2023-09-19T11:21:51;21.90;99.90
12470;DHT22;36499;46.484;13.832;2023-09-19T11:24:28;22.00;99.90
12470;DHT22;36499;46.484;13.832;2023-09-19T11:27:13;22.10;99.90
12470;DHT22;36499;46.484;13.832;2023-09-19T11:29:43;22.10;99.90
12470;DHT22;36499;46.484;13.832;2023-09-19T11:32:12;22.30;99.90
12470;DHT22;36499;46.484;13.832;2023-09-19T11:34:46;22.30;99.90
12470;DHT22;36499;46.484;13.832;2023-09-19T11:40:44;22.40;99.90
12470;DHT22;36499;46.484;13.832;2023-09-19T11:43:38;22.40;99.90
12470;DHT22;36499;46.484;13.832;2023-09-19T11:46:07;22.50;99.90
12470;DHT22;36499;46.484;13.832;2023-09-19T11:48:35;22.70;99.90
12470;DHT22;36499;46.484;13.832;2023-09-19T11:51:11;22.60;99.90
12470;DHT22;36499;46.484;13.832;2023-09-19T11:53:46;22.60;99.90
12470;DHT22;36499;46.484;13.832;2023-09-19T11:56:17;22.60;99.90
12470;DHT22;36499;46.484;13.832;2023-09-19T11:58:46;22.70;99.90
12470;DHT22;36499;46.484;13.832;2023-09-19T12:01:21;22.70;99.90
12470;DHT22;36499;46.484;13.832;2023-09-19T12:03:55;22.70;99.90
12470;DHT22;36499;46.484;13.832;2023-09-19T12:06:24;22.90;99.90
12470;DHT22;36499;46.484;13.832;2023-09-19T12:08:52;22.80;99.90
12470;DHT22;36499;46.484;13.832;2023-09-19T12:11:22;22.80;99.90
12470;DHT22;36499;46.484;13.832;2023-09-19T12:13:50;22.80;99.90
12470;DHT22;36499;46.484;13.832;2023-09-19T12:16:19;22.80;99.90
12470;DHT22;36499;46.484;13.832;2023-09-19T12:18:49;22.90;99.90
12470;DHT22;36499;46.484;13.832;2023-09-19T12:21:26;22.80;99.90
12470;DHT22;36499;46.484;13.832;2023-09-19T12:24:14;22.70;99.90
12470;DHT22;36499;46.484;13.832;2023-09-19T12:26:46;22.70;99.90
12470;DHT22;36499;46.484;13.832;2023-09-19T12:29:18;22.70;99.90
12470;DHT22;36499;46.484;13.832;2023-09-19T12:31:54;22.80;99.90
12470;DHT22;36499;46.484;13.832;2023-09-19T12:34:24;22.80;99.90
12470;DHT22;36499;46.484;13.832;2023-09-19T12:37:10;22.80;99.90
12470;DHT22;36499;46.484;13.832;2023-09-19T12:39:39;22.80;99.90
12470;DHT22;36499;46.484;13.832;2023-09-19T12:42:15;22.90;99.90
12470;DHT22;36499;46.484;13.832;2023-09-19T12:44:44;22.90;99.90
12470;DHT22;36499;46.484;13.832;2023-09-19T12:47:14;22.90;99.90
12470;DHT22;36499;46.484;13.832;2023-09-19T12:50:11;22.90;99.90
12470;DHT22;36499;46.484;13.832;2023-09-19T12:52:43;22.90;99.90
12470;DHT22;36499;46.484;13.832;2023-09-19T12:55:23;22.90;99.90
12470;DHT22;36499;46.484;13.832;2023-09-19T12:58:12;22.80;99.90
12470;DHT22;36499;46.484;13.832;2023-09-19T13:00:42;22.90;99.90
12470;DHT22;36499;46.484;13.832;2023-09-19T13:03:14;22.90;99.90
12470;DHT22;36499;46.484;13.832;2023-09-19T13:05:52;22.90;99.90
12470;DHT22;36499;46.484;13.832;2023-09-19T13:08:26;22.70;99.90
12470;DHT22;36499;46.484;13.832;2023-09-19T13:11:04;22.60;99.90
12470;DHT22;36499;46.484;13.832;2023-09-19T13:13:32;22.40;99.90
12470;DHT22;36499;46.484;13.832;2023-09-19T13:16:02;22.30;99.90
12470;DHT22;36499;46.484;13.832;2023-09-19T13:18:41;22.20;99.90
12470;DHT22;36499;46.484;13.832;2023-09-19T13:21:11;22.20;99.90
12470;DHT22;36499;46.484;13.832;2023-09-19T13:23:50;22.10;99.90
12470;DHT22;36499;46.484;13.832;2023-09-19T13:26:18;22.10;99.90
12470;DHT22;36499;46.484;13.832;2023-09-19T13:28:45;22.10;99.90
12470;DHT22;36499;46.484;13.832;2023-09-19T13:31:15;21.90;99.90
12470;DHT22;36499;46.484;13.832;2023-09-19T13:33:44;21.70;99.90
12470;DHT22;36499;46.484;13.832;2023-09-19T13:36:12;21.50;99.90
12470;DHT22;36499;46.484;13.832;2023-09-19T13:38:40;21.30;99.90
12470;DHT22;36499;46.484;13.832;2023-09-19T13:41:10;21.30;99.90
12470;DHT22;36499;46.484;13.832;2023-09-19T13:43:38;21.10;99.90
12470;DHT22;36499;46.484;13.832;2023-09-19T13:46:05;21.00;99.90
12470;DHT22;36499;46.484;13.832;2023-09-19T13:48:37;20.80;99.90
12470;DHT22;36499;46.484;13.832;2023-09-19T13:51:04;20.60;99.90
12470;DHT22;36499;46.484;13.832;2023-09-19T13:53:31;20.50;99.90
12470;DHT22;36499;46.484;13.832;2023-09-19T13:55:59;20.50;99.90
12470;DHT22;36499;46.484;13.832;2023-09-19T13:58:27;20.40;99.90
12470;DHT22;36499;46.484;13.832;2023-09-19T14:00:56;20.30;99.90
12470;DHT22;36499;46.484;13.832;2023-09-19T14:03:25;20.40;99.90
12470;DHT22;36499;46.484;13.832;2023-09-19T14:05:53;20.40;99.90
12470;DHT22;36499;46.484;13.832;2023-09-19T14:08:21;20.40;99.90
12470;DHT22;36499;46.484;13.832;2023-09-19T14:10:49;20.30;99.90
12470;DHT22;36499;46.484;13.832;2023-09-19T14:13:16;20.10;99.90
12470;DHT22;36499;46.484;13.832;2023-09-19T14:15:44;19.90;99.90
12470;DHT22;36499;46.484;13.832;2023-09-19T14:18:11;19.90;99.90
12470;DHT22;36499;46.484;13.832;2023-09-19T14:20:38;19.90;99.90
12470;DHT22;36499;46.484;13.832;2023-09-19T14:23:07;19.90;99.90
12470;DHT22;36499;46.484;13.832;2023-09-19T14:25:34;19.80;99.90
12470;DHT22;36499;46.484;13.832;2023-09-19T14:28:02;19.70;99.90
12470;DHT22;36499;46.484;13.832;2023-09-19T14:30:29;19.70;99.90
12470;DHT22;36499;46.484;13.832;2023-09-19T14:32:57;19.60;99.90
12470;DHT22;36499;46.484;13.832;2023-09-19T14:35:25;19.50;99.90
12470;DHT22;36499;46.484;13.832;2023-09-19T14:37:53;19.40;99.90
12470;DHT22;36499;46.484;13.832;2023-09-19T14:40:20;19.40;99.90
12470;DHT22;36499;46.484;13.832;2023-09-19T14:42:48;19.50;99.90
12470;DHT22;36499;46.484;13.832;2023-09-19T14:45:15;19.50;99.90
12470;DHT22;36499;46.484;13.832;2023-09-19T14:47:43;19.40;99.90
12470;DHT22;36499;46.484;13.832;2023-09-19T14:50:13;19.30;99.90
12470;DHT22;36499;46.484;13.832;2023-09-19T14:52:41;19.30;99.90
12470;DHT22;36499;46.484;13.832;2023-09-19T14:55:08;19.30;99.90
12470;DHT22;36499;46.484;13.832;2023-09-19T14:57:41;19.20;99.90
12470;DHT22;36499;46.484;13.832;2023-09-19T15:00:11;19.30;99.90
12470;DHT22;36499;46.484;13.832;2023-09-19T15:02:39;19.30;99.90
12470;DHT22;36499;46.484;13.832;2023-09-19T15:05:07;19.40;99.90
12470;DHT22;36499;46.484;13.832;2023-09-19T15:07:36;19.50;99.90
12470;DHT22;36499;46.484;13.832;2023-09-19T15:10:05;19.60;99.90
12470;DHT22;36499;46.484;13.832;2023-09-19T15:12:35;19.50;99.90
12470;DHT22;36499;46.484;13.832;2023-09-19T15:15:04;19.50;99.90
12470;DHT22;36499;46.484;13.832;2023-09-19T15:17:33;19.50;99.90
12470;DHT22;36499;46.484;13.832;2023-09-19T15:20:00;19.40;99.90
12470;DHT22;36499;46.484;13.832;2023-09-19T15:22:32;19.40;99.90
12470;DHT22;36499;46.484;13.832;2023-09-19T15:25:01;19.40;99.90
12470;DHT22;36499;46.484;13.832;2023-09-19T15:27:29;19.40;99.90
12470;DHT22;36499;46.484;13.832;2023-09-19T15:29:58;19.30;99.90
12470;DHT22;36499;46.484;13.832;2023-09-19T15:32:26;19.30;99.90
12470;DHT22;36499;46.484;13.832;2023-09-19T15:34:53;19.20;99.90
12470;DHT22;36499;46.484;13.832;2023-09-19T15:37:20;19.20;99.90
12470;DHT22;36499;46.484;13.832;2023-09-19T15:39:48;19.10;99.90
12470;DHT22;36499;46.484;13.832;2023-09-19T15:42:16;19.10;99.90